createdAt,value
2022-10-29T00:00:56.887Z,98443.22
2022-10-29T00:03:25.225Z,98447.84
2022-10-29T00:06:18.435Z,98445.47
2022-10-29T00:08:45.369Z,98446.66
2022-10-29T00:11:19.721Z,98455.31
2022-10-29T00:13:52.360Z,98459.84
2022-10-29T00:16:24.555Z,98442.63
2022-10-29T00:18:51.686Z,98451.75
2022-10-29T00:21:22.180Z,98452.84
2022-10-29T00:23:49.978Z,98460.22
2022-10-29T00:26:18.549Z,98462.13
2022-10-29T00:28:45.790Z,98465.66
2022-10-29T00:31:16.891Z,98458.06
2022-10-29T00:33:43.683Z,98457.94
2022-10-29T00:36:17.546Z,98461.63
2022-10-29T00:38:45.157Z,98464.22
2022-10-29T00:41:16.599Z,98458.41
2022-10-29T00:44:15.335Z,98449.16
2022-10-29T00:46:48.323Z,98461.47
2022-10-29T00:49:17.329Z,98453.75
2022-10-29T00:51:46.357Z,98460.06
2022-10-29T00:54:16.447Z,98463.03
2022-10-29T00:56:57.530Z,98464.94
2022-10-29T00:59:24.859Z,98466.91
2022-10-29T01:01:52.327Z,98471.44
2022-10-29T01:04:20.631Z,98464.78
2022-10-29T01:06:48.600Z,98460.75
2022-10-29T01:09:15.366Z,98462.63
2022-10-29T01:12:15.581Z,98462.75
2022-10-29T01:14:52.505Z,98457.06
2022-10-29T01:17:45.251Z,98455.63
2022-10-29T01:20:34.380Z,98451.44
2022-10-29T01:23:16.169Z,98450.00
2022-10-29T01:26:07.777Z,98445.25
2022-10-29T01:28:49.147Z,98446.41
2022-10-29T01:32:01.455Z,98434.44
2022-10-29T01:34:59.932Z,98432.88
2022-10-29T01:37:44.334Z,98425.47
2022-10-29T01:40:18.657Z,98417.88
2022-10-29T01:43:43.697Z,98421.56
2022-10-29T01:46:21.593Z,98410.75
2022-10-29T01:48:54.719Z,98418.78
2022-10-29T01:51:30.965Z,98422.47
2022-10-29T01:54:01.321Z,98422.56
2022-10-29T01:56:28.121Z,98418.31
2022-10-29T01:59:00.225Z,98415.94
2022-10-29T02:01:42.037Z,98416.03
2022-10-29T02:04:48.688Z,98417.91
2022-10-29T02:07:26.935Z,98422.41
2022-10-29T02:10:19.292Z,98407.94
2022-10-29T02:12:53.933Z,98410.66
2022-10-29T02:15:43.547Z,98405.69
2022-10-29T02:18:10.618Z,98405.75
2022-10-29T02:20:44.101Z,98413.81
2022-10-29T02:23:11.601Z,98413.00
2022-10-29T02:25:38.404Z,98408.94
2022-10-29T02:28:05.873Z,98410.84
2022-10-29T02:30:32.595Z,98404.91
2022-10-29T02:32:59.569Z,98397.16
2022-10-29T02:35:26.519Z,98398.13
2022-10-29T02:37:53.268Z,98399.06
2022-10-29T02:40:19.994Z,98398.34
2022-10-29T02:42:46.715Z,98391.59
2022-10-29T02:45:13.402Z,98393.47
2022-10-29T02:47:40.108Z,98400.59
2022-10-29T02:50:07.765Z,98397.97
2022-10-29T02:52:34.485Z,98402.44
2022-10-29T02:55:01.186Z,98404.22
2022-10-29T02:57:27.895Z,98399.13
2022-10-29T02:59:54.600Z,98404.34
2022-10-29T03:02:21.387Z,98397.47
2022-10-29T03:04:48.262Z,98397.47
2022-10-29T03:07:14.944Z,98389.75
2022-10-29T03:09:41.647Z,98395.06
2022-10-29T03:12:08.566Z,98385.59
2022-10-29T03:14:35.333Z,98391.03
2022-10-29T03:17:02.162Z,98394.59
2022-10-29T03:19:28.851Z,98395.63
2022-10-29T03:21:55.569Z,98389.69
2022-10-29T03:24:22.270Z,98381.03
2022-10-29T03:26:48.980Z,98378.66
2022-10-29T03:29:15.677Z,98377.13
2022-10-29T03:31:42.382Z,98378.88
2022-10-29T03:34:09.093Z,98372.13
2022-10-29T03:36:35.841Z,98384.41
2022-10-29T03:39:02.550Z,98376.00
2022-10-29T03:41:29.266Z,98378.59
2022-10-29T03:46:27.825Z,98379.22
2022-10-29T03:48:54.539Z,98375.91
2022-10-29T03:51:21.297Z,98382.19
2022-10-29T03:53:48.044Z,98385.72
2022-10-29T03:56:17.231Z,98387.50
2022-10-29T03:58:44.010Z,98394.72
2022-10-29T04:01:11.283Z,98404.31
2022-10-29T04:03:42.017Z,98393.25
2022-10-29T04:06:15.200Z,98396.91
2022-10-29T04:08:42.842Z,98402.22
2022-10-29T04:11:12.650Z,98400.69
2022-10-29T04:13:39.695Z,98398.28
2022-10-29T04:16:06.661Z,98405.34
2022-10-29T04:18:36.162Z,98414.09
2022-10-29T04:29:25.186Z,98425.88
2022-10-29T04:31:51.895Z,98436.19
2022-10-29T04:34:18.657Z,98436.28
2022-10-29T04:36:45.409Z,98437.97
2022-10-29T04:39:12.226Z,98438.19
2022-10-29T04:41:38.985Z,98439.84
2022-10-29T04:44:05.702Z,98431.19
2022-10-29T04:46:32.379Z,98437.34
2022-10-29T04:48:59.191Z,98434.09
2022-10-29T04:51:27.203Z,98443.78
2022-10-29T04:53:54.037Z,98444.72
2022-10-29T04:56:20.958Z,98435.47
2022-10-29T04:58:52.525Z,98436.31
2022-10-29T05:01:19.682Z,98431.19
2022-10-29T05:03:46.545Z,98437.34
2022-10-29T05:06:13.292Z,98430.47
2022-10-29T05:08:40.047Z,98432.31
2022-10-29T05:11:07.368Z,98425.56
2022-10-29T05:13:34.768Z,98427.44
2022-10-29T05:16:04.555Z,98424.84
2022-10-29T05:18:31.262Z,98417.88
2022-10-29T05:20:58.079Z,98416.09
2022-10-29T05:23:24.890Z,98427.44
2022-10-29T05:25:52.367Z,98424.72
2022-10-29T05:28:22.719Z,98419.53
2022-10-29T05:30:51.846Z,98425.56
2022-10-29T05:33:23.276Z,98422.03
2022-10-29T05:35:51.082Z,98430.66
2022-10-29T05:38:18.634Z,98419.31
2022-10-29T05:40:45.941Z,98428.72
2022-10-29T05:43:14.979Z,98430.38
2022-10-29T05:45:42.429Z,98431.09
2022-10-29T05:50:39.403Z,98430.88
2022-10-29T05:53:11.396Z,98441.19
2022-10-29T05:55:39.135Z,98434.09
2022-10-29T05:58:14.728Z,98434.94
2022-10-29T06:00:44.202Z,98439.31
2022-10-29T06:03:20.827Z,98440.78
2022-10-29T06:05:49.589Z,98445.88
2022-10-29T06:08:16.906Z,98447.44
2022-10-29T06:10:43.678Z,98454.13
2022-10-29T06:13:12.267Z,98453.94
2022-10-29T06:15:39.549Z,98456.31
2022-10-29T06:18:06.676Z,98460.38
2022-10-29T06:20:33.477Z,98458.47
2022-10-29T06:23:00.189Z,98466.91
2022-10-29T06:25:27.964Z,98477.88
2022-10-29T06:28:02.982Z,98459.50
2022-10-29T06:30:32.233Z,98459.28
2022-10-29T06:33:00.101Z,98447.81
2022-10-29T06:35:27.447Z,98456.16
2022-10-29T06:37:54.608Z,98455.09
2022-10-29T06:40:21.965Z,98453.00
2022-10-29T06:42:48.872Z,98451.03
2022-10-29T06:45:15.770Z,98457.78
2022-10-29T06:47:44.842Z,98456.75
2022-10-29T06:50:14.090Z,98446.91
2022-10-29T06:52:40.788Z,98442.34
2022-10-29T06:55:08.798Z,98449.22
2022-10-29T06:57:36.032Z,98449.81
2022-10-29T07:00:07.586Z,98462.41
2022-10-29T07:02:35.754Z,98455.00
2022-10-29T07:05:02.450Z,98445.88
2022-10-29T07:07:29.447Z,98444.84
2022-10-29T07:09:56.263Z,98444.50
2022-10-29T07:12:22.942Z,98446.78
2022-10-29T07:14:49.639Z,98450.75
2022-10-29T07:17:16.346Z,98446.94
2022-10-29T07:19:43.053Z,98435.44
2022-10-29T07:22:09.777Z,98429.16
2022-10-29T07:24:36.503Z,98440.13
2022-10-29T07:27:03.231Z,98444.16
2022-10-29T07:29:29.928Z,98445.38
2022-10-29T07:31:56.653Z,98445.75
2022-10-29T07:34:23.372Z,98451.56
2022-10-29T07:36:50.059Z,98436.53
2022-10-29T07:39:17.297Z,98438.81
2022-10-29T07:41:44.106Z,98447.13
2022-10-29T07:44:11.060Z,98453.56
2022-10-29T07:46:37.772Z,98451.44
2022-10-29T07:49:04.518Z,98450.75
2022-10-29T07:51:31.287Z,98450.91
2022-10-29T07:53:58.022Z,98465.97
2022-10-29T07:56:24.719Z,98457.44
2022-10-29T07:58:51.409Z,98458.41
2022-10-29T08:01:18.204Z,98456.97
2022-10-29T08:03:44.999Z,98455.31
2022-10-29T08:06:11.703Z,98454.63
2022-10-29T08:08:38.426Z,98450.34
2022-10-29T08:11:05.566Z,98440.09
2022-10-29T08:13:32.439Z,98440.22
2022-10-29T08:15:59.171Z,98426.44
2022-10-29T08:18:25.966Z,98430.09
2022-10-29T08:20:52.690Z,98434.25
2022-10-29T08:23:19.392Z,98431.22
2022-10-29T08:25:46.144Z,98443.75
2022-10-29T08:28:15.325Z,98443.16
2022-10-29T08:30:43.952Z,98437.25
2022-10-29T08:33:11.508Z,98440.34
2022-10-29T08:35:38.623Z,98440.47
2022-10-29T08:38:05.435Z,98438.31
2022-10-29T08:40:56.846Z,98439.94
2022-10-29T08:43:55.883Z,98446.44
2022-10-29T08:46:57.694Z,98447.03
2022-10-29T08:49:32.959Z,98446.22
2022-10-29T08:52:05.717Z,98438.44
2022-10-29T08:54:39.665Z,98444.53
2022-10-29T08:57:14.887Z,98439.28
2022-10-29T09:00:04.348Z,98439.28
2022-10-29T09:02:31.322Z,98447.69
2022-10-29T09:04:59.342Z,98443.34
2022-10-29T09:07:49.483Z,98442.84
2022-10-29T09:10:41.416Z,98444.00
2022-10-29T09:14:17.872Z,98444.44
2022-10-29T09:17:00.292Z,98445.75
2022-10-29T09:19:42.014Z,98451.53
2022-10-29T09:22:55.484Z,98445.28
2022-10-29T09:25:34.958Z,98448.91
2022-10-29T09:28:21.927Z,98443.78
2022-10-29T09:31:23.588Z,98440.16
2022-10-29T09:33:56.458Z,98435.41
2022-10-29T09:36:26.597Z,98438.44
2022-10-29T09:39:12.399Z,98431.75
2022-10-29T09:41:40.568Z,98426.41
2022-10-29T09:44:18.269Z,98423.84
2022-10-29T09:47:12.258Z,98419.34
2022-10-29T09:50:08.593Z,98423.47
2022-10-29T09:52:40.796Z,98423.09
2022-10-29T09:55:19.931Z,98417.63
2022-10-29T09:57:47.428Z,98422.69
2022-10-29T10:00:33.646Z,98416.28
2022-10-29T10:03:23.337Z,98407.72
2022-10-29T10:06:04.030Z,98415.28
2022-10-29T10:08:33.121Z,98408.91
2022-10-29T10:11:07.409Z,98419.91
2022-10-29T10:13:52.451Z,98400.09
2022-10-29T10:16:29.256Z,98404.16
2022-10-29T10:18:56.144Z,98394.81
2022-10-29T10:21:32.791Z,98398.84
2022-10-29T10:24:00.766Z,98392.16
2022-10-29T10:26:35.027Z,98389.56
2022-10-29T10:29:19.312Z,98393.03
2022-10-29T10:32:10.139Z,98379.44
2022-10-29T10:34:39.041Z,98382.69
2022-10-29T10:37:15.857Z,98369.78
2022-10-29T10:39:45.817Z,98373.06
2022-10-29T10:42:26.194Z,98371.47
2022-10-29T10:45:12.011Z,98372.81
2022-10-29T10:47:50.122Z,98366.28
2022-10-29T10:50:29.674Z,98368.91
2022-10-29T10:53:02.367Z,98360.31
2022-10-29T10:55:34.787Z,98357.75
2022-10-29T10:58:29.469Z,98358.03
2022-10-29T11:01:15.284Z,98356.25
2022-10-29T11:04:17.301Z,98352.53
2022-10-29T11:06:49.587Z,98346.31
2022-10-29T11:09:34.540Z,98343.97
2022-10-29T11:12:13.600Z,98343.16
2022-10-29T11:14:49.823Z,98342.78
2022-10-29T11:17:31.151Z,98335.41
2022-10-29T11:20:08.418Z,98338.97
2022-10-29T11:23:27.110Z,98340.41
2022-10-29T11:26:08.045Z,98336.63
2022-10-29T11:28:47.256Z,98331.25
2022-10-29T11:31:49.647Z,98330.44
2022-10-29T11:34:24.872Z,98328.59
2022-10-29T11:37:12.913Z,98322.97
2022-10-29T11:39:58.375Z,98325.97
2022-10-29T11:42:25.767Z,98324.00
2022-10-29T11:44:52.793Z,98321.72
2022-10-29T11:47:48.765Z,98314.75
2022-10-29T11:50:43.579Z,98316.63
2022-10-29T11:53:39.442Z,98307.75
2022-10-29T11:56:24.051Z,98303.84
2022-10-29T11:59:05.621Z,98304.00
2022-10-29T12:01:58.625Z,98299.16
2022-10-29T12:04:51.457Z,98289.91
2022-10-29T12:07:32.479Z,98290.94
2022-10-29T12:10:27.946Z,98282.50
2022-10-29T12:13:28.197Z,98286.94
2022-10-29T12:16:34.204Z,98275.53
2022-10-29T12:19:19.398Z,98271.94
2022-10-29T12:22:06.454Z,98262.25
2022-10-29T12:24:54.605Z,98265.75
2022-10-29T12:27:36.209Z,98263.56
2022-10-29T12:30:07.925Z,98263.97
2022-10-29T12:33:09.734Z,98251.91
2022-10-29T12:36:09.494Z,98256.44
2022-10-29T12:38:42.280Z,98251.72
2022-10-29T12:41:35.874Z,98243.44
2022-10-29T12:44:58.528Z,98237.75
2022-10-29T12:47:50.108Z,98233.22
2022-10-29T12:50:35.217Z,98233.59
2022-10-29T12:53:12.067Z,98230.94
2022-10-29T12:55:40.121Z,98228.09
2022-10-29T12:58:48.738Z,98225.78
2022-10-29T13:01:57.166Z,98224.09
2022-10-29T13:04:31.866Z,98231.09
2022-10-29T13:07:25.793Z,98221.44
2022-10-29T13:10:38.519Z,98219.78
2022-10-29T13:13:42.302Z,98216.31
2022-10-29T13:16:24.265Z,98219.19
2022-10-29T13:19:09.197Z,98208.28
2022-10-29T13:21:56.079Z,98208.72
2022-10-29T13:24:24.332Z,98204.00
2022-10-29T13:27:05.796Z,98206.44
2022-10-29T13:29:50.985Z,98209.25
2022-10-29T13:32:36.843Z,98200.81
2022-10-29T13:35:18.199Z,98205.34
2022-10-29T13:37:49.073Z,98197.25
2022-10-29T13:40:30.864Z,98188.66
2022-10-29T13:43:08.864Z,98193.34
2022-10-29T13:45:39.807Z,98188.78
2022-10-29T13:48:18.571Z,98186.66
2022-10-29T13:50:52.084Z,98197.38
2022-10-29T13:53:35.517Z,98190.09
2022-10-29T13:56:02.820Z,98198.75
2022-10-29T13:58:36.440Z,98191.53
2022-10-29T14:01:11.054Z,98195.75
2022-10-29T14:04:03.639Z,98202.41
2022-10-29T14:06:37.749Z,98197.31
2022-10-29T14:09:21.955Z,98197.22
2022-10-29T14:12:02.519Z,98185.19
2022-10-29T14:14:51.629Z,98193.38
2022-10-29T14:17:19.480Z,98187.56
2022-10-29T14:19:50.492Z,98195.69
2022-10-29T14:22:29.876Z,98183.50
2022-10-29T14:24:57.241Z,98190.38
2022-10-29T14:27:23.994Z,98186.31
2022-10-29T14:29:53.103Z,98182.44
2022-10-29T14:32:22.565Z,98185.81
2022-10-29T14:34:51.238Z,98181.56
2022-10-29T14:37:35.256Z,98181.94
2022-10-29T14:40:14.160Z,98170.56
2022-10-29T14:42:46.470Z,98178.59
2022-10-29T14:45:25.544Z,98175.16
2022-10-29T14:48:09.582Z,98174.38
2022-10-29T14:50:36.895Z,98174.00
2022-10-29T14:53:29.114Z,98166.13
2022-10-29T14:55:56.470Z,98164.75
2022-10-29T14:58:33.988Z,98167.88
2022-10-29T15:01:16.053Z,98165.03
2022-10-29T15:03:42.894Z,98160.56
2022-10-29T15:06:25.646Z,98161.34
2022-10-29T15:09:03.511Z,98164.19
2022-10-29T15:11:47.354Z,98165.16
2022-10-29T15:14:36.560Z,98163.81
2022-10-29T15:17:16.935Z,98157.66
2022-10-29T15:19:45.800Z,98174.28
2022-10-29T15:22:24.609Z,98158.16
2022-10-29T15:24:52.518Z,98168.34
2022-10-29T15:27:19.400Z,98166.09
2022-10-29T15:29:48.662Z,98162.53
2022-10-29T15:32:17.814Z,98165.91
2022-10-29T15:34:54.688Z,98154.75
2022-10-29T15:37:32.541Z,98164.22
2022-10-29T15:40:20.996Z,98163.94
2022-10-29T15:42:48.841Z,98150.75
2022-10-29T15:45:24.127Z,98158.38
2022-10-29T15:48:28.314Z,98155.75
2022-10-29T15:50:57.503Z,98158.41
2022-10-29T15:53:24.251Z,98165.34
2022-10-29T15:55:52.798Z,98155.75
2022-10-29T15:58:23.308Z,98160.38
2022-10-29T16:00:51.641Z,98161.00
2022-10-29T16:03:26.996Z,98168.19
2022-10-29T16:06:10.525Z,98170.47
2022-10-29T16:08:59.159Z,98165.81
2022-10-29T16:11:29.740Z,98170.41
2022-10-29T16:14:01.668Z,98167.09
2022-10-29T16:16:38.748Z,98167.38
2022-10-29T16:19:06.009Z,98172.88
2022-10-29T16:21:38.932Z,98178.09
2022-10-29T16:24:13.073Z,98169.50
2022-10-29T16:26:39.753Z,98180.47
2022-10-29T16:29:06.460Z,98170.03
2022-10-29T16:31:33.176Z,98176.94
2022-10-29T16:34:04.356Z,98175.72
2022-10-29T16:36:31.073Z,98173.88
2022-10-29T16:38:57.843Z,98172.81
2022-10-29T16:41:24.617Z,98174.44
2022-10-29T16:43:52.403Z,98175.69
2022-10-29T16:46:19.208Z,98174.69
2022-10-29T16:48:46.423Z,98183.13
2022-10-29T16:51:13.232Z,98183.75
2022-10-29T16:53:40.120Z,98186.84
2022-10-29T16:56:07.334Z,98179.38
2022-10-29T16:58:34.083Z,98179.69
2022-10-29T17:01:06.005Z,98185.69
2022-10-29T17:03:33.193Z,98194.88
2022-10-29T17:06:11.032Z,98185.78
2022-10-29T17:08:38.782Z,98187.19
2022-10-29T17:11:09.846Z,98184.22
2022-10-29T17:13:37.642Z,98186.31
2022-10-29T17:16:14.620Z,98189.38
2022-10-29T17:18:41.520Z,98193.44
2022-10-29T17:21:08.217Z,98199.16
2022-10-29T17:23:34.933Z,98194.31
2022-10-29T17:26:01.993Z,98194.75
2022-10-29T17:28:28.981Z,98191.63
2022-10-29T17:30:55.741Z,98199.91
2022-10-29T17:33:22.424Z,98194.00
2022-10-29T17:35:49.133Z,98199.69
2022-10-29T17:38:15.834Z,98201.66
2022-10-29T17:40:46.072Z,98207.13
2022-10-29T17:43:13.040Z,98211.03
2022-10-29T17:45:42.014Z,98212.00
2022-10-29T17:48:08.731Z,98205.25
2022-10-29T17:50:35.776Z,98209.94
2022-10-29T17:53:03.357Z,98211.75
2022-10-29T17:55:30.124Z,98220.75
2022-10-29T17:57:56.993Z,98215.81
2022-10-29T18:00:25.110Z,98213.31
2022-10-29T18:02:51.942Z,98215.53
2022-10-29T18:05:19.283Z,98217.94
2022-10-29T18:07:46.076Z,98222.78
2022-10-29T18:10:12.890Z,98223.88
2022-10-29T18:12:39.633Z,98225.31
2022-10-29T18:15:07.048Z,98231.94
2022-10-29T18:17:33.882Z,98227.13
2022-10-29T18:20:00.644Z,98229.34
2022-10-29T18:22:27.420Z,98226.16
2022-10-29T18:24:54.170Z,98222.31
2022-10-29T18:27:21.042Z,98228.16
2022-10-29T18:29:47.838Z,98224.56
2022-10-29T18:32:14.592Z,98227.47
2022-10-29T18:34:41.434Z,98226.34
2022-10-29T18:37:08.436Z,98233.69
2022-10-29T18:39:35.146Z,98238.75
2022-10-29T18:42:01.929Z,98227.88
2022-10-29T18:44:28.656Z,98228.41
2022-10-29T18:46:55.420Z,98222.75
2022-10-29T18:49:22.274Z,98225.09
2022-10-29T18:51:48.993Z,98225.53
2022-10-29T18:54:16.272Z,98223.47
2022-10-29T18:56:43.173Z,98208.13
2022-10-29T18:59:12.601Z,98212.13
2022-10-29T19:01:39.934Z,98218.47
2022-10-29T19:04:11.039Z,98211.00
2022-10-29T19:06:38.069Z,98209.63
2022-10-29T19:09:09.480Z,98215.16
2022-10-29T19:11:36.805Z,98205.19
2022-10-29T19:14:11.433Z,98200.09
2022-10-29T19:16:38.284Z,98209.06
2022-10-29T19:19:10.524Z,98209.34
2022-10-29T19:21:39.039Z,98220.09
2022-10-29T19:24:07.393Z,98207.25
2022-10-29T19:26:35.963Z,98211.78
2022-10-29T19:29:05.143Z,98218.97
2022-10-29T19:31:34.571Z,98208.75
2022-10-29T19:34:06.024Z,98205.69
2022-10-29T19:36:34.843Z,98203.34
2022-10-29T19:39:01.973Z,98204.59
2022-10-29T19:41:29.356Z,98210.22
2022-10-29T19:44:00.096Z,98203.56
2022-10-29T19:46:29.478Z,98204.81
2022-10-29T19:48:58.275Z,98210.56
2022-10-29T19:51:25.607Z,98205.72
2022-10-29T19:53:52.476Z,98207.09
2022-10-29T19:56:20.432Z,98202.25
2022-10-29T19:58:47.250Z,98206.38
2022-10-29T20:01:17.939Z,98211.84
2022-10-29T20:03:46.017Z,98219.13
2022-10-29T20:06:13.849Z,98214.31
2022-10-29T20:08:40.705Z,98213.16
2022-10-29T20:11:07.960Z,98216.03
2022-10-29T20:13:35.206Z,98219.75
2022-10-29T20:16:14.324Z,98213.81
2022-10-29T20:18:41.126Z,98219.44
2022-10-29T20:21:08.909Z,98217.22
2022-10-29T20:23:36.463Z,98211.41
2022-10-29T20:26:03.601Z,98221.28
2022-10-29T20:28:30.313Z,98216.31
2022-10-29T20:31:19.076Z,98223.34
2022-10-29T20:33:54.396Z,98222.66
2022-10-29T20:36:22.672Z,98217.66
2022-10-29T20:38:51.539Z,98219.59
2022-10-29T20:41:18.974Z,98217.09
2022-10-29T20:43:46.250Z,98221.75
2022-10-29T20:46:12.960Z,98222.69
2022-10-29T20:48:39.639Z,98222.69
2022-10-29T20:51:06.436Z,98226.41
2022-10-29T20:53:33.265Z,98215.38
2022-10-29T20:55:59.952Z,98225.03
2022-10-29T20:58:26.673Z,98224.06
2022-10-29T21:00:53.460Z,98224.19
2022-10-29T21:03:20.168Z,98213.13
2022-10-29T21:05:46.894Z,98217.53
2022-10-29T21:08:13.694Z,98222.91
2022-10-29T21:10:40.413Z,98223.03
2022-10-29T21:13:07.156Z,98229.22
2022-10-29T21:15:36.961Z,98223.16
2022-10-29T21:18:04.009Z,98233.75
2022-10-29T21:20:30.768Z,98226.84
2022-10-29T21:22:57.873Z,98222.72
2022-10-29T21:25:24.922Z,98220.19
2022-10-29T21:27:54.637Z,98215.78
2022-10-29T21:30:21.829Z,98220.19
2022-10-29T21:32:48.611Z,98214.97
2022-10-29T21:35:15.625Z,98215.78
2022-10-29T21:37:42.400Z,98215.78
2022-10-29T21:40:10.153Z,98213.09
2022-10-29T21:42:37.525Z,98217.50
2022-10-29T21:45:05.020Z,98214.03
2022-10-29T21:47:31.802Z,98219.38
2022-10-29T21:49:58.650Z,98210.81
2022-10-29T21:52:25.356Z,98219.59
2022-10-29T21:54:52.146Z,98215.47
2022-10-29T21:57:18.844Z,98214.50
2022-10-29T21:59:45.552Z,98218.06
2022-10-29T22:02:12.379Z,98214.63
2022-10-29T22:04:39.207Z,98218.06
2022-10-29T22:07:05.926Z,98217.13
2022-10-29T22:09:32.667Z,98216.28
2022-10-29T22:11:59.365Z,98217.13
2022-10-29T22:14:26.138Z,98210.09
2022-10-29T22:16:56.601Z,98207.63
2022-10-29T22:19:23.732Z,98216.41
2022-10-29T22:21:50.678Z,98209.53
2022-10-29T22:24:17.410Z,98211.31
2022-10-29T22:26:50.308Z,98207.88
2022-10-29T22:29:17.215Z,98209.53
2022-10-29T22:31:43.917Z,98204.16
2022-10-29T22:34:10.624Z,98201.69
2022-10-29T22:36:37.340Z,98206.91
2022-10-29T22:39:04.081Z,98206.09
2022-10-29T22:41:31.150Z,98198.38
2022-10-29T22:43:58.981Z,98195.75
2022-10-29T22:46:27.910Z,98198.38
2022-10-29T22:48:54.748Z,98199.19
2022-10-29T22:51:28.417Z,98202.66
2022-10-29T22:53:55.428Z,98189.56
2022-10-29T22:56:37.531Z,98189.56
2022-10-29T22:59:07.977Z,98199.19
2022-10-29T23:01:40.347Z,98193.16
2022-10-29T23:04:10.907Z,98198.38
2022-10-29T23:06:37.661Z,98196.94
2022-10-29T23:09:04.428Z,98192.53
2022-10-29T23:11:34.823Z,98201.34
2022-10-29T23:14:02.669Z,98197.78
2022-10-29T23:16:32.729Z,98190.75
2022-10-29T23:19:02.786Z,98194.47
2022-10-29T23:21:29.926Z,98195.28
2022-10-29T23:23:57.741Z,98197.22
2022-10-29T23:26:25.688Z,98190.19
2022-10-29T23:28:52.584Z,98197.22
2022-10-29T23:31:23.002Z,98191.41
2022-10-29T23:33:52.799Z,98197.47
2022-10-29T23:36:22.794Z,98199.13
2022-10-29T23:38:58.176Z,98199.13
2022-10-29T23:41:26.790Z,98192.94
2022-10-29T23:43:54.028Z,98192.09
2022-10-29T23:46:21.428Z,98187.97
2022-10-29T23:48:48.437Z,98188.94
2022-10-29T23:51:15.383Z,98188.09
2022-10-29T23:53:42.141Z,98181.31
2022-10-29T23:56:09.200Z,98184.78
2022-10-29T23:58:35.905Z,98183.09
